createdAt,value
2023-02-12T00:01:28.722Z,21.87
2023-02-12T00:03:56.912Z,20.73
2023-02-12T00:06:25.487Z,22.40
2023-02-12T00:08:54.514Z,23.30
2023-02-12T00:11:24.683Z,26.13
2023-02-12T00:13:52.949Z,26.30
2023-02-12T00:16:24.086Z,29.27
2023-02-12T00:18:54.852Z,25.43
2023-02-12T00:21:23.154Z,28.07
2023-02-12T00:23:51.283Z,22.20
2023-02-12T00:26:22.952Z,27.77
2023-02-12T00:28:54.322Z,27.17
2023-02-12T00:31:24.119Z,24.33
2023-02-12T00:33:53.807Z,23.70
2023-02-12T00:36:23.953Z,29.87
2023-02-12T00:38:53.027Z,25.03
2023-02-12T00:41:21.247Z,26.83
2023-02-12T00:43:49.690Z,28.23
2023-02-12T00:46:17.637Z,30.63
2023-02-12T00:48:45.748Z,26.47
2023-02-12T00:51:15.092Z,28.60
2023-02-12T00:53:45.050Z,31.80
2023-02-12T00:56:12.834Z,26.80
2023-02-12T00:58:41.351Z,22.47
2023-02-12T01:01:09.251Z,25.37
2023-02-12T01:03:37.319Z,28.80
2023-02-12T01:06:05.834Z,21.03
2023-02-12T01:08:34.934Z,29.33
2023-02-12T01:11:05.198Z,25.47
2023-02-12T01:13:34.245Z,24.73
2023-02-12T01:16:04.443Z,25.03
2023-02-12T01:18:32.260Z,19.27
2023-02-12T01:21:01.317Z,25.37
2023-02-12T01:23:29.547Z,19.70
2023-02-12T01:25:59.582Z,22.23
2023-02-12T01:28:27.616Z,24.37
2023-02-12T01:30:55.495Z,30.07
2023-02-12T01:33:23.226Z,26.20
2023-02-12T01:35:50.937Z,21.57
2023-02-12T01:38:18.990Z,28.83
2023-02-12T01:40:46.695Z,25.07
2023-02-12T01:43:15.849Z,21.23
2023-02-12T01:45:50.406Z,21.37
2023-02-12T01:48:20.237Z,27.70
2023-02-12T01:50:50.038Z,26.57
2023-02-12T01:53:20.886Z,25.53
2023-02-12T01:55:52.083Z,19.60
2023-02-12T01:58:25.052Z,23.47
2023-02-12T02:00:53.523Z,19.20
2023-02-12T02:03:21.699Z,24.17
2023-02-12T02:05:56.842Z,25.17
2023-02-12T02:08:25.888Z,19.60
2023-02-12T02:10:53.895Z,30.17
2023-02-12T02:13:40.717Z,24.43
2023-02-12T02:16:16.885Z,28.87
2023-02-12T02:18:54.516Z,30.20
2023-02-12T02:21:46.937Z,24.87
2023-02-12T02:24:49.380Z,23.10
2023-02-12T02:27:21.586Z,28.37
2023-02-12T02:30:27.500Z,27.83
2023-02-12T02:33:07.974Z,27.10
2023-02-12T02:35:42.777Z,21.60
2023-02-12T02:38:23.322Z,28.33
2023-02-12T02:40:56.989Z,24.23
2023-02-12T02:43:29.724Z,26.53
2023-02-12T02:46:02.389Z,22.80
2023-02-12T02:48:37.347Z,30.57
2023-02-12T02:51:10.085Z,24.10
2023-02-12T02:53:43.295Z,23.10
2023-02-12T02:56:15.890Z,23.47
2023-02-12T02:58:51.236Z,22.23
2023-02-12T03:01:22.970Z,23.33
2023-02-12T03:03:55.876Z,24.73
2023-02-12T03:06:28.641Z,28.63
2023-02-12T03:09:01.249Z,22.63
2023-02-12T03:11:33.084Z,25.77
2023-02-12T03:14:06.754Z,25.57
2023-02-12T03:16:40.036Z,29.50
2023-02-12T03:19:13.101Z,28.73
2023-02-12T03:21:44.782Z,26.33
2023-02-12T03:24:17.586Z,28.63
2023-02-12T03:26:49.606Z,26.03
2023-02-12T03:29:17.513Z,24.17
2023-02-12T03:31:55.026Z,22.93
2023-02-12T03:34:32.134Z,23.83
2023-02-12T03:37:04.030Z,22.23
2023-02-12T03:39:39.566Z,25.83
2023-02-12T03:42:11.323Z,25.40
2023-02-12T03:44:49.423Z,23.13
2023-02-12T03:47:23.965Z,26.63
2023-02-12T03:50:02.105Z,28.30
2023-02-12T03:52:31.117Z,25.03
2023-02-12T03:54:59.280Z,30.63
2023-02-12T03:57:31.404Z,26.23
2023-02-12T03:59:59.825Z,29.53
2023-02-12T04:02:27.822Z,32.23
2023-02-12T04:04:57.036Z,29.63
2023-02-12T04:07:25.070Z,28.87
2023-02-12T04:09:52.809Z,31.40
2023-02-12T04:12:35.796Z,32.10
2023-02-12T04:15:23.455Z,27.93
2023-02-12T04:18:02.863Z,30.60
2023-02-12T04:20:47.689Z,31.40
2023-02-12T04:23:23.768Z,29.73
2023-02-12T04:26:00.185Z,27.90
2023-02-12T04:28:38.406Z,27.77
2023-02-12T04:31:12.788Z,31.77
2023-02-12T04:33:45.793Z,28.37
2023-02-12T04:36:18.184Z,30.13
2023-02-12T04:38:52.283Z,29.10
2023-02-12T04:41:23.064Z,30.97
2023-02-12T04:43:51.099Z,32.00
2023-02-12T04:46:19.014Z,27.07
2023-02-12T04:48:54.594Z,31.67
2023-02-12T04:51:23.738Z,30.97
2023-02-12T04:53:51.955Z,28.50
2023-02-12T04:56:19.702Z,29.07
2023-02-12T04:58:47.522Z,29.67
2023-02-12T05:01:16.020Z,28.10
2023-02-12T05:03:43.775Z,29.27
2023-02-12T05:06:11.588Z,27.87
2023-02-12T05:08:40.970Z,27.40
2023-02-12T05:11:10.397Z,29.30
2023-02-12T05:13:38.801Z,24.17
2023-02-12T05:16:07.865Z,26.27
2023-02-12T05:18:36.693Z,29.43
2023-02-12T05:21:06.830Z,21.47
2023-02-12T05:23:36.653Z,26.17
2023-02-12T05:26:07.516Z,24.67
2023-02-12T05:28:35.488Z,27.13
2023-02-12T05:31:06.044Z,27.20
2023-02-12T05:33:34.204Z,23.20
2023-02-12T05:36:05.034Z,27.50
2023-02-12T05:38:33.144Z,28.80
2023-02-12T05:41:06.437Z,29.60
2023-02-12T05:43:34.772Z,26.57
2023-02-12T05:46:04.130Z,30.23
2023-02-12T05:48:33.455Z,27.60
2023-02-12T05:51:05.314Z,27.33
2023-02-12T05:53:33.099Z,27.50
2023-02-12T05:56:13.530Z,24.27
2023-02-12T05:58:43.611Z,26.57
2023-02-12T06:01:15.172Z,23.47
2023-02-12T06:03:43.311Z,25.77
2023-02-12T06:06:11.860Z,25.73
2023-02-12T06:08:40.064Z,26.07
2023-02-12T06:11:10.425Z,29.80
2023-02-12T06:13:39.641Z,30.17
2023-02-12T06:16:08.103Z,27.13
2023-02-12T06:18:37.873Z,28.77
2023-02-12T06:21:06.117Z,28.20
2023-02-12T06:23:33.850Z,28.03
2023-02-12T06:26:01.622Z,25.40
2023-02-12T06:28:29.449Z,24.03
2023-02-12T06:30:58.641Z,24.60
2023-02-12T06:33:26.610Z,27.37
2023-02-12T06:35:54.610Z,27.07
2023-02-12T06:38:22.970Z,29.47
2023-02-12T06:40:50.819Z,24.47
2023-02-12T06:43:18.870Z,25.37
2023-02-12T06:45:46.553Z,25.23
2023-02-12T06:48:15.665Z,25.67
2023-02-12T06:50:43.373Z,30.60
2023-02-12T06:53:11.117Z,21.40
2023-02-12T06:55:41.427Z,29.17
2023-02-12T06:58:09.221Z,26.30
2023-02-12T07:00:37.038Z,31.30
2023-02-12T07:03:07.824Z,32.63
2023-02-12T07:05:39.925Z,26.67
2023-02-12T07:08:07.662Z,27.73
2023-02-12T07:10:35.437Z,31.67
2023-02-12T07:13:03.837Z,31.60
2023-02-12T07:15:31.640Z,27.07
2023-02-12T07:17:59.406Z,25.83
2023-02-12T07:20:27.150Z,26.37
2023-02-12T07:22:56.308Z,30.03
2023-02-12T07:25:24.044Z,30.63
2023-02-12T07:27:51.797Z,27.23
2023-02-12T07:30:20.070Z,31.83
2023-02-12T07:32:47.818Z,32.07
2023-02-12T07:35:15.857Z,26.93
2023-02-12T07:37:43.560Z,29.30
2023-02-12T07:40:13.223Z,28.10
2023-02-12T07:42:40.977Z,29.40
2023-02-12T07:45:11.411Z,27.53
2023-02-12T07:47:40.622Z,28.87
2023-02-12T07:50:09.041Z,30.47
2023-02-12T07:52:36.788Z,28.40
2023-02-12T07:55:04.602Z,29.17
2023-02-12T07:57:33.730Z,31.10
2023-02-12T08:00:01.457Z,30.30
2023-02-12T08:02:29.249Z,30.80
2023-02-12T08:04:57.777Z,26.17
2023-02-12T08:07:25.764Z,26.67
2023-02-12T08:09:53.952Z,23.47
2023-02-12T08:12:21.701Z,21.37
2023-02-12T08:14:50.789Z,22.30
2023-02-12T08:17:18.509Z,26.17
2023-02-12T08:19:46.306Z,23.20
2023-02-12T08:22:14.349Z,29.53
2023-02-12T08:24:43.319Z,26.20
2023-02-12T08:27:11.194Z,29.87
2023-02-12T08:29:41.040Z,27.60
2023-02-12T08:32:14.229Z,31.53
2023-02-12T08:34:42.587Z,27.47
2023-02-12T08:37:10.377Z,27.60
2023-02-12T08:39:38.212Z,27.70
2023-02-12T08:42:06.081Z,31.87
2023-02-12T08:44:33.985Z,25.40
2023-02-12T08:47:01.695Z,29.70
2023-02-12T08:49:31.452Z,29.73
2023-02-12T08:52:01.834Z,28.60
2023-02-12T08:54:31.521Z,31.20
2023-02-12T08:57:01.303Z,28.30
2023-02-12T08:59:29.446Z,28.53
2023-02-12T09:01:57.357Z,30.17
2023-02-12T09:04:26.835Z,26.37
2023-02-12T09:06:56.920Z,31.43
2023-02-12T09:09:27.003Z,30.93
2023-02-12T09:11:54.819Z,31.83
2023-02-12T09:14:25.270Z,31.03
2023-02-12T09:16:53.854Z,31.00
2023-02-12T09:19:22.110Z,34.23
2023-02-12T09:21:55.257Z,35.50
2023-02-12T09:24:26.045Z,32.30
2023-02-12T09:26:53.999Z,33.40
2023-02-12T09:29:21.716Z,28.27
2023-02-12T09:31:49.568Z,31.17
2023-02-12T09:34:17.528Z,33.50
2023-02-12T09:36:45.332Z,34.03
2023-02-12T09:39:13.048Z,32.90
2023-02-12T09:42:15.292Z,32.27
2023-02-12T09:44:50.089Z,28.93
2023-02-12T09:47:27.875Z,25.83
2023-02-12T09:50:12.255Z,34.60
2023-02-12T09:52:41.168Z,35.47
2023-02-12T09:55:15.620Z,37.60
2023-02-12T09:57:45.790Z,34.27
2023-02-12T10:00:17.492Z,34.90
2023-02-12T10:02:49.664Z,33.57
2023-02-12T10:05:24.102Z,32.27
2023-02-12T10:08:14.543Z,30.23
2023-02-12T10:10:52.730Z,34.73
2023-02-12T10:13:38.430Z,34.67
2023-02-12T10:16:13.573Z,31.67
2023-02-12T10:19:00.971Z,30.13
2023-02-12T10:21:43.444Z,27.63
2023-02-12T10:24:30.339Z,29.07
2023-02-12T10:27:01.828Z,28.10
2023-02-12T10:29:35.539Z,33.07
2023-02-12T10:32:08.855Z,29.10
2023-02-12T10:34:38.170Z,28.30
2023-02-12T10:37:15.597Z,32.17
2023-02-12T10:39:49.218Z,32.93
2023-02-12T10:42:20.751Z,27.13
2023-02-12T10:44:49.949Z,29.30
2023-02-12T10:47:21.651Z,28.27
2023-02-12T10:49:53.775Z,27.27
2023-02-12T10:52:34.131Z,32.10
2023-02-12T10:55:01.925Z,30.60
2023-02-12T10:57:31.993Z,33.27
2023-02-12T11:00:25.406Z,29.80
2023-02-12T11:03:04.762Z,29.80
2023-02-12T11:05:35.649Z,29.00
2023-02-12T11:08:03.969Z,30.97
2023-02-12T11:10:34.038Z,24.47
2023-02-12T11:13:02.931Z,23.27
2023-02-12T11:15:38.755Z,19.37
2023-02-12T11:18:08.607Z,9.70
2023-02-12T11:20:41.269Z,5.67
2023-02-12T11:23:26.031Z,7.13
2023-02-12T11:25:59.910Z,6.13
2023-02-12T11:28:28.742Z,6.83
2023-02-12T11:31:00.390Z,6.10
2023-02-12T11:33:30.882Z,6.77
2023-02-12T11:36:01.461Z,6.10
2023-02-12T11:38:32.854Z,7.60
2023-02-12T11:41:06.174Z,6.43
2023-02-12T11:43:37.330Z,5.47
2023-02-12T11:46:09.194Z,6.67
2023-02-12T11:48:40.674Z,5.30
2023-02-12T11:51:10.973Z,5.50
2023-02-12T11:53:43.924Z,6.07
2023-02-12T11:56:14.651Z,7.17
2023-02-12T11:58:42.602Z,7.20
2023-02-12T12:01:19.404Z,6.83
2023-02-12T12:03:55.131Z,6.37
2023-02-12T12:06:29.180Z,6.50
2023-02-12T12:09:03.087Z,7.63
2023-02-12T12:11:38.303Z,7.57
2023-02-12T12:14:15.304Z,7.37
2023-02-12T12:17:10.131Z,6.87
2023-02-12T12:19:55.679Z,7.50
2023-02-12T12:22:41.580Z,7.53
2023-02-12T12:25:21.539Z,6.40
2023-02-12T12:28:08.262Z,7.87
2023-02-12T12:30:49.647Z,7.67
2023-02-12T12:33:27.395Z,8.83
2023-02-12T12:36:09.748Z,5.93
2023-02-12T12:38:48.206Z,7.63
2023-02-12T12:41:28.432Z,5.90
2023-02-12T12:44:11.907Z,6.27
2023-02-12T12:46:57.672Z,6.77
2023-02-12T12:49:53.701Z,6.33
2023-02-12T12:52:41.112Z,4.43
2023-02-12T12:55:31.695Z,5.27
2023-02-12T12:58:10.444Z,4.83
2023-02-12T13:01:06.119Z,6.10
2023-02-12T13:03:53.605Z,6.27
2023-02-12T13:06:39.139Z,5.63
2023-02-12T13:09:24.980Z,5.77
2023-02-12T13:12:07.814Z,5.73
2023-02-12T13:14:45.218Z,6.30
2023-02-12T13:17:24.589Z,6.20
2023-02-12T13:20:00.491Z,6.07
2023-02-12T13:22:36.414Z,6.83
2023-02-12T13:25:17.400Z,5.63
2023-02-12T13:27:47.465Z,4.90
2023-02-12T13:30:24.237Z,5.77
2023-02-12T13:33:04.119Z,4.60
2023-02-12T13:35:35.016Z,4.07
2023-02-12T13:38:08.623Z,4.03
2023-02-12T13:40:37.228Z,4.40
2023-02-12T13:43:20.059Z,6.13
2023-02-12T13:45:53.881Z,5.17
2023-02-12T13:48:34.975Z,6.10
2023-02-12T13:51:09.963Z,5.63
2023-02-12T13:53:52.534Z,5.63
2023-02-12T13:56:34.016Z,5.27
2023-02-12T13:59:01.846Z,5.37
2023-02-12T14:01:45.069Z,4.60
2023-02-12T14:04:33.900Z,5.03
2023-02-12T14:07:05.014Z,4.83
2023-02-12T14:09:38.670Z,5.70
2023-02-12T14:12:08.320Z,6.37
2023-02-12T14:14:39.865Z,5.20
2023-02-12T14:17:43.593Z,5.27
2023-02-12T14:20:27.707Z,5.20
2023-02-12T14:23:26.747Z,4.70
2023-02-12T14:26:02.514Z,4.10
2023-02-12T14:28:42.792Z,3.57
2023-02-12T14:31:38.444Z,3.43
2023-02-12T14:34:50.974Z,3.87
2023-02-12T14:37:35.958Z,3.03
2023-02-12T14:40:42.829Z,2.90
2023-02-12T14:43:59.600Z,2.70
2023-02-12T14:46:48.609Z,3.03
2023-02-12T14:49:24.868Z,2.23
2023-02-12T14:51:58.471Z,3.77
2023-02-12T14:54:31.508Z,2.80
2023-02-12T14:57:02.748Z,2.37
2023-02-12T14:59:38.487Z,2.40
2023-02-12T15:02:09.928Z,2.80
2023-02-12T15:04:39.421Z,2.50
2023-02-12T15:07:12.131Z,2.70
2023-02-12T15:09:46.016Z,2.60
2023-02-12T15:12:21.749Z,2.70
2023-02-12T15:15:00.149Z,4.23
2023-02-12T15:17:36.018Z,2.37
2023-02-12T15:20:08.939Z,2.20
2023-02-12T15:22:38.343Z,1.83
2023-02-12T15:25:16.576Z,2.20
2023-02-12T15:27:45.073Z,1.77
2023-02-12T15:30:26.612Z,4.07
2023-02-12T15:33:01.012Z,2.33
2023-02-12T15:35:32.321Z,2.07
2023-02-12T15:38:02.220Z,2.30
2023-02-12T15:40:30.948Z,2.47
2023-02-12T15:43:00.501Z,2.50
2023-02-12T15:45:31.028Z,2.67
2023-02-12T15:48:08.158Z,2.40
2023-02-12T15:50:38.809Z,2.37
2023-02-12T15:53:07.515Z,3.93
2023-02-12T15:55:40.968Z,2.63
2023-02-12T15:58:28.982Z,2.77
2023-02-12T16:01:08.359Z,2.07
2023-02-12T16:03:38.406Z,2.93
2023-02-12T16:06:12.016Z,2.63
2023-02-12T16:08:42.356Z,2.60
2023-02-12T16:11:15.010Z,2.70
2023-02-12T16:13:46.852Z,2.30
2023-02-12T16:16:30.520Z,1.97
2023-02-12T16:19:08.535Z,2.60
2023-02-12T16:21:40.084Z,2.63
2023-02-12T16:24:26.760Z,2.60
2023-02-12T16:26:55.551Z,2.23
2023-02-12T16:29:23.661Z,2.93
2023-02-12T16:31:58.959Z,2.93
2023-02-12T16:34:33.061Z,3.60
2023-02-12T16:37:01.223Z,4.80
2023-02-12T16:40:02.956Z,2.63
2023-02-12T16:42:33.181Z,5.77
2023-02-12T16:45:01.025Z,2.57
2023-02-12T16:47:30.248Z,3.03
2023-02-12T16:50:00.938Z,2.53
2023-02-12T16:52:35.588Z,4.27
2023-02-12T16:55:03.570Z,3.40
2023-02-12T16:57:31.377Z,3.83
2023-02-12T16:59:59.121Z,3.37
2023-02-12T17:02:26.998Z,3.63
2023-02-12T17:05:00.844Z,3.73
2023-02-12T17:07:30.952Z,3.97
2023-02-12T17:09:58.863Z,3.47
2023-02-12T17:12:27.480Z,4.07
2023-02-12T17:14:55.822Z,4.77
2023-02-12T17:17:23.636Z,4.90
2023-02-12T17:19:53.103Z,3.27
2023-02-12T17:22:24.684Z,3.07
2023-02-12T17:24:55.341Z,3.67
2023-02-12T17:27:23.766Z,5.37
2023-02-12T17:29:51.580Z,5.23
2023-02-12T17:32:19.426Z,5.40
2023-02-12T17:34:50.308Z,4.20
2023-02-12T17:37:19.065Z,5.10
2023-02-12T17:39:48.304Z,6.20
2023-02-12T17:42:16.225Z,4.00
2023-02-12T17:44:44.132Z,3.93
2023-02-12T17:47:14.112Z,4.67
2023-02-12T17:49:42.570Z,4.13
2023-02-12T17:52:10.597Z,5.90
2023-02-12T17:54:41.047Z,7.43
2023-02-12T17:57:13.015Z,6.43
2023-02-12T17:59:41.752Z,6.00
2023-02-12T18:02:11.243Z,5.90
2023-02-12T18:04:39.987Z,6.30
2023-02-12T18:07:07.900Z,6.90
2023-02-12T18:09:38.104Z,7.63
2023-02-12T18:12:07.803Z,8.37
2023-02-12T18:14:37.372Z,7.83
2023-02-12T18:17:05.285Z,9.70
2023-02-12T18:19:33.098Z,9.70
2023-02-12T18:22:00.856Z,7.07
2023-02-12T18:24:30.708Z,10.67
2023-02-12T18:26:58.480Z,12.70
2023-02-12T18:29:28.613Z,9.13
2023-02-12T18:31:59.716Z,10.13
2023-02-12T18:34:27.764Z,11.77
2023-02-12T18:36:55.571Z,8.23
2023-02-12T18:39:23.337Z,11.27
2023-02-12T18:41:51.150Z,9.43
2023-02-12T18:44:19.012Z,10.77
2023-02-12T18:46:46.759Z,8.70
2023-02-12T18:49:16.588Z,9.90
2023-02-12T18:51:44.611Z,9.03
2023-02-12T18:54:14.141Z,9.37
2023-02-12T18:56:45.005Z,11.27
2023-02-12T18:59:15.297Z,10.13
2023-02-12T19:01:44.291Z,11.27
2023-02-12T19:04:13.738Z,9.63
2023-02-12T19:06:45.601Z,11.37
2023-02-12T19:09:16.677Z,10.00
2023-02-12T19:11:46.551Z,8.80
2023-02-12T19:14:14.508Z,10.37
2023-02-12T19:16:42.612Z,8.57
2023-02-12T19:19:10.422Z,7.87
2023-02-12T19:21:39.496Z,9.87
2023-02-12T19:24:09.206Z,8.77
2023-02-12T19:26:37.342Z,9.83
2023-02-12T19:29:06.069Z,9.67
2023-02-12T19:31:36.114Z,10.40
2023-02-12T19:34:06.135Z,9.67
2023-02-12T19:36:37.038Z,11.77
2023-02-12T19:39:06.493Z,11.20
2023-02-12T19:41:40.818Z,10.60
2023-02-12T19:44:12.594Z,11.37
2023-02-12T19:46:40.984Z,10.43
2023-02-12T19:49:13.560Z,9.70
2023-02-12T19:51:41.728Z,11.73
2023-02-12T19:54:10.293Z,10.23
2023-02-12T19:56:40.043Z,10.17
2023-02-12T19:59:08.198Z,7.90
2023-02-12T20:01:38.149Z,9.70
2023-02-12T20:04:06.334Z,10.90
2023-02-12T20:06:36.990Z,12.53
2023-02-12T20:09:06.141Z,12.77
2023-02-12T20:11:37.347Z,13.17
2023-02-12T20:14:07.622Z,11.60
2023-02-12T20:16:38.256Z,13.73
2023-02-12T20:19:08.291Z,13.03
2023-02-12T20:21:39.191Z,12.50
2023-02-12T20:24:07.559Z,14.13
2023-02-12T20:26:36.435Z,13.50
2023-02-12T20:29:06.068Z,14.93
2023-02-12T20:31:35.876Z,14.60
2023-02-12T20:34:06.491Z,14.50
2023-02-12T20:36:36.691Z,11.13
2023-02-12T20:39:06.081Z,13.53
2023-02-12T20:41:34.922Z,13.87
2023-02-12T20:44:02.729Z,12.53
2023-02-12T20:46:31.937Z,16.77
2023-02-12T20:48:59.696Z,14.37
2023-02-12T20:51:28.913Z,12.17
2023-02-12T20:53:57.046Z,12.10
2023-02-12T20:56:27.342Z,13.77
2023-02-12T20:58:55.601Z,13.87
2023-02-12T21:01:26.597Z,10.73
2023-02-12T21:03:56.404Z,10.93
2023-02-12T21:06:25.512Z,17.07
2023-02-12T21:08:53.346Z,12.27
2023-02-12T21:11:23.070Z,12.37
2023-02-12T21:14:02.349Z,11.27
2023-02-12T21:16:33.503Z,12.90
2023-02-12T21:19:02.967Z,12.87
2023-02-12T21:21:32.757Z,13.30
2023-02-12T21:24:01.878Z,11.00
2023-02-12T21:26:33.231Z,13.90
2023-02-12T21:29:03.929Z,13.27
2023-02-12T21:31:34.107Z,14.93
2023-02-12T21:34:05.283Z,13.53
2023-02-12T21:36:37.670Z,13.10
2023-02-12T21:39:06.904Z,11.73
2023-02-12T21:41:36.743Z,10.97
2023-02-12T21:44:06.859Z,16.10
2023-02-12T21:46:35.559Z,13.70
2023-02-12T21:49:05.549Z,16.03
2023-02-12T21:51:37.050Z,16.00
2023-02-12T21:54:07.353Z,15.50
2023-02-12T21:56:36.751Z,15.70
2023-02-12T21:59:05.228Z,12.00
2023-02-12T22:01:35.774Z,15.77
2023-02-12T22:04:06.725Z,13.93
2023-02-12T22:06:37.864Z,12.60
2023-02-12T22:09:08.706Z,11.87
2023-02-12T22:11:36.972Z,13.30
2023-02-12T22:14:06.773Z,12.00
2023-02-12T22:16:35.557Z,14.23
2023-02-12T22:19:05.560Z,11.17
2023-02-12T22:21:35.251Z,13.57
2023-02-12T22:24:05.336Z,16.37
2023-02-12T22:26:33.918Z,17.43
2023-02-12T22:29:06.888Z,16.53
2023-02-12T22:31:37.411Z,16.73
2023-02-12T22:34:09.124Z,15.87
2023-02-12T22:36:39.193Z,16.47
2023-02-12T22:39:07.616Z,16.20
2023-02-12T22:41:35.944Z,16.67
2023-02-12T22:44:05.885Z,14.30
2023-02-12T22:46:36.076Z,17.37
2023-02-12T22:49:04.198Z,16.23
2023-02-12T22:51:34.565Z,17.33
2023-02-12T22:54:02.456Z,19.17
2023-02-12T22:56:30.219Z,16.97
2023-02-12T22:59:00.206Z,17.73
2023-02-12T23:01:29.739Z,16.67
2023-02-12T23:03:58.317Z,17.23
2023-02-12T23:06:27.663Z,18.13
2023-02-12T23:08:58.931Z,17.50
2023-02-12T23:11:28.065Z,13.17
2023-02-12T23:13:56.402Z,16.50
2023-02-12T23:16:24.659Z,15.33
2023-02-12T23:18:56.393Z,15.37
2023-02-12T23:21:24.648Z,17.37
2023-02-12T23:23:52.496Z,13.80
2023-02-12T23:26:21.799Z,11.30
2023-02-12T23:28:49.593Z,13.40
2023-02-12T23:31:19.498Z,13.57
2023-02-12T23:33:47.358Z,12.80
2023-02-12T23:36:15.468Z,16.97
2023-02-12T23:38:43.286Z,16.70
2023-02-12T23:41:11.092Z,14.90
2023-02-12T23:43:40.201Z,16.13
2023-02-12T23:46:09.180Z,15.67
2023-02-12T23:48:37.059Z,13.43
2023-02-12T23:51:05.486Z,16.73
2023-02-12T23:53:33.224Z,16.60
2023-02-12T23:56:01.027Z,12.73
2023-02-12T23:58:28.760Z,13.73
